sensor_id;sensor_type;location;lat;lon;timestamp;temperature;humidity
19496;DHT22;9888;48.606;9.630;2023-05-10T18:13:09;11.70;99.90
19496;DHT22;9888;48.606;9.630;2023-05-10T18:15:37;11.60;99.90
19496;DHT22;9888;48.606;9.630;2023-05-10T18:18:06;11.60;99.90
19496;DHT22;9888;48.606;9.630;2023-05-10T18:20:34;11.50;99.90
19496;DHT22;9888;48.606;9.630;2023-05-10T18:23:02;11.40;99.90
19496;DHT22;9888;48.606;9.630;2023-05-10T18:25:29;11.40;99.90
19496;DHT22;9888;48.606;9.630;2023-05-10T18:27:59;11.30;99.90
19496;DHT22;9888;48.606;9.630;2023-05-10T18:30:27;11.20;99.90
19496;DHT22;9888;48.606;9.630;2023-05-10T18:32:55;11.20;99.90
19496;DHT22;9888;48.606;9.630;2023-05-10T18:35:23;11.20;99.90
19496;DHT22;9888;48.606;9.630;2023-05-10T18:37:52;11.20;99.90
19496;DHT22;9888;48.606;9.630;2023-05-10T18:40:22;11.30;99.90
19496;DHT22;9888;48.606;9.630;2023-05-10T18:42:50;11.20;99.90
19496;DHT22;9888;48.606;9.630;2023-05-10T18:45:18;11.20;99.90
19496;DHT22;9888;48.606;9.630;2023-05-10T18:47:46;11.20;99.90
19496;DHT22;9888;48.606;9.630;2023-05-10T18:50:14;11.20;99.90
19496;DHT22;9888;48.606;9.630;2023-05-10T18:52:45;11.20;99.90
19496;DHT22;9888;48.606;9.630;2023-05-10T18:55:14;11.30;99.90
19496;DHT22;9888;48.606;9.630;2023-05-10T18:57:41;11.30;99.90
19496;DHT22;9888;48.606;9.630;2023-05-10T22:13:28;9.50;99.90
19496;DHT22;9888;48.606;9.630;2023-05-10T22:15:56;9.50;99.90
19496;DHT22;9888;48.606;9.630;2023-05-10T22:18:24;9.40;99.90
19496;DHT22;9888;48.606;9.630;2023-05-10T22:20:51;9.40;99.90
19496;DHT22;9888;48.606;9.630;2023-05-10T22:23:19;9.40;99.90
19496;DHT22;9888;48.606;9.630;2023-05-10T22:25:48;9.40;99.90
19496;DHT22;9888;48.606;9.630;2023-05-10T22:28:15;9.40;99.90
19496;DHT22;9888;48.606;9.630;2023-05-10T22:30:43;9.40;99.90
19496;DHT22;9888;48.606;9.630;2023-05-10T22:33:10;9.30;99.90
19496;DHT22;9888;48.606;9.630;2023-05-10T22:35:38;9.30;99.90
19496;DHT22;9888;48.606;9.630;2023-05-10T22:38:05;9.30;99.90
19496;DHT22;9888;48.606;9.630;2023-05-10T22:40:32;9.30;99.90
19496;DHT22;9888;48.606;9.630;2023-05-10T22:43:00;9.30;99.90
19496;DHT22;9888;48.606;9.630;2023-05-10T22:45:27;9.30;99.90
19496;DHT22;9888;48.606;9.630;2023-05-10T22:47:54;9.30;99.90
19496;DHT22;9888;48.606;9.630;2023-05-10T22:50:21;9.30;99.90
19496;DHT22;9888;48.606;9.630;2023-05-10T22:52:48;9.30;99.90
19496;DHT22;9888;48.606;9.630;2023-05-10T22:55:15;9.30;99.90
19496;DHT22;9888;48.606;9.630;2023-05-10T22:57:42;9.30;99.90
19496;DHT22;9888;48.606;9.630;2023-05-10T23:00:10;9.20;99.90
19496;DHT22;9888;48.606;9.630;2023-05-10T23:02:37;9.20;99.90
19496;DHT22;9888;48.606;9.630;2023-05-10T23:05:06;9.20;99.90
19496;DHT22;9888;48.606;9.630;2023-05-10T23:07:33;9.20;99.90
19496;DHT22;9888;48.606;9.630;2023-05-10T23:10:00;9.20;99.90
19496;DHT22;9888;48.606;9.630;2023-05-10T23:12:27;9.20;99.90
19496;DHT22;9888;48.606;9.630;2023-05-10T23:14:56;9.20;99.90
19496;DHT22;9888;48.606;9.630;2023-05-10T23:17:24;9.20;99.90
19496;DHT22;9888;48.606;9.630;2023-05-10T23:19:51;9.30;99.90
19496;DHT22;9888;48.606;9.630;2023-05-10T23:22:20;9.30;99.90
19496;DHT22;9888;48.606;9.630;2023-05-10T23:24:47;9.30;99.90
19496;DHT22;9888;48.606;9.630;2023-05-10T23:27:14;9.20;99.90
19496;DHT22;9888;48.606;9.630;2023-05-10T23:29:41;9.20;99.90
19496;DHT22;9888;48.606;9.630;2023-05-10T23:32:08;9.20;99.90
19496;DHT22;9888;48.606;9.630;2023-05-10T23:34:36;9.20;99.90
19496;DHT22;9888;48.606;9.630;2023-05-10T23:37:02;9.10;99.90
19496;DHT22;9888;48.606;9.630;2023-05-10T23:39:29;9.10;99.90
19496;DHT22;9888;48.606;9.630;2023-05-10T23:41:58;9.00;99.90
19496;DHT22;9888;48.606;9.630;2023-05-10T23:44:25;9.00;99.90
19496;DHT22;9888;48.606;9.630;2023-05-10T23:46:52;9.00;99.90
19496;DHT22;9888;48.606;9.630;2023-05-10T23:49:19;8.90;99.90
19496;DHT22;9888;48.606;9.630;2023-05-10T23:51:46;8.90;99.90
19496;DHT22;9888;48.606;9.630;2023-05-10T23:54:15;8.90;99.90
19496;DHT22;9888;48.606;9.630;2023-05-10T23:56:48;8.90;99.90
19496;DHT22;9888;48.606;9.630;2023-05-10T23:59:16;8.90;99.90
